OPNH

Details ICAO OPNH (WNS)
Name NAWABSHAH
Region Pakistan
Timezone Asia/Karachi (UTC+5.0)
Plans Departing 18
Arriving 12
Stats Elevation 95 ft / 29 m (AMSL)
Location 26.219439° 68.390055°
Runways 1
Magnetic Variation 1.284° E
Sunrise 2018-05-23 00:38:03 UTC / 2018-05-23 05:38:03 Local
Sunset 2018-05-23 14:11:09 UTC / 2018-05-23 19:11:09 Local
Advertisement - Login to hide

Runways

ID Width Length Bearing (true) Bearing (mag) Surface Threshold Offset Overrun Length
02 150 ft / 46 m 9,031 ft / 2,753 m 20.42° 19.14° Concrete 0 ft / 0 m 934 ft / 285 m
20 150 ft / 46 m 9,031 ft / 2,753 m 200.42° 199.14° Concrete 0 ft / 0 m 934 ft / 285 m

Map

Weather


0- 5 10 15 20 25 30 35+ Temperature / ° C

Clouds and Precipitation
Forecast for 2018-05-23 12:00 UTC. Updated 19 minutes ago

Ground ~20,000 ft ~40,000 ft Winds

METAR

OPNH 231100Z 13504KT 6000 NSC 44/09 Q1003 NOSIG

TAF

Not found

Frequencies

Ground 121.80 MHz TWR
Tower 118.10 MHz TWR
Warning: Do not use this data for real-world aviation or navigation. No guarantee of current accuracy is given.